15:37
Airports
Links
Donate
Help keep this website running!
PayPal
Bitcoin
METAR
KORD 181451Z 24017G23KT 10SM FEW250 M07/M12 A3011 RMK AO2 SLP207 T10721122 58009
Current Weather Conditions at KORD
VFR 14:51:00 18-01-18
Automated station
Altimeter:30.11 hg
Temp:-7.2°c 19°f
Dew point:-12.2°c 10°f
Wind:17 knots, 19.6 mph, 9 m/s, from 240°
Visibility:10.0 statute miles
25000(FEW) A few
Past METAR reports
VFR 13:51:00 18-01-18
Automated station
Altimeter:30.11 hg
Temp:-8.3°c 18°f
Dew point:-12.2°c 10°f
Wind:13 knots, 15 mph, 7 m/s, from 230°
Visibility:10.0 statute miles
25000(FEW) A few
KORD 181351Z 23013KT 10SM FEW250 M08/M12 A3011 RMK AO2 SLP208 T10831122
VFR 12:51:00 18-01-18
Automated station
Altimeter:30.14 hg
Temp:-8.3°c 18°f
Dew point:-12.8°c 10°f
Wind:13 knots, 15 mph, 7 m/s, from 230°
Visibility:10.0 statute miles
25000(FEW) A few
KORD 181251Z 23013KT 10SM FEW250 M08/M13 A3014 RMK AO2 SLP218 T10831128
VFR 11:51:00 18-01-18
Automated station
Altimeter:30.14 hg
Temp:-8.3°c 18°f
Dew point:-12.8°c 10°f
Wind:12 knots, 13.8 mph, 6 m/s, from 240°
Visibility:10.0 statute miles
(CLR) Clear
KORD 181151Z 24012G18KT 10SM CLR M08/M13 A3014 RMK AO2 SLP216 4/002 T10831128 11078 21083 58006
VFR 10:51:00 18-01-18
Automated station
Altimeter:30.15 hg
Temp:-8.3°c 18°f
Dew point:-12.8°c 10°f
Wind:10 knots, 11.5 mph, 5 m/s, from 250°
Visibility:10.0 statute miles
(CLR) Clear
KORD 181051Z 25010G18KT 10SM CLR M08/M13 A3015 RMK AO2 SLP222 T10831128
VFR 09:51:00 18-01-18
Automated station
Altimeter:30.15 hg
Temp:-8.3°c 18°f
Dew point:-12.8°c 10°f
Wind:10 knots, 11.5 mph, 5 m/s, from 250°
Visibility:10.0 statute miles
(CLR) Clear
KORD 180951Z 25010KT 10SM CLR M08/M13 A3015 RMK AO2 SLP220 T10831128
TAF
KORD 181508Z 1815/1918 24016G23KT P6SM SCT250 FM190000 23012KT P6SM SKC FM191600 22014G20KT P6SM FEW250
Forecast at KORD
15:00 18-01-18 to 00:00 19-01-18
Wind:16 Knots from 240°
Visibility:6.21 statute miles
25000SCT Scattered
FM 00:00 19-01-18 to 16:00 19-01-18
Wind:12 Knots from 230°
Visibility:6.21 statute miles
SKC Clear
FM 16:00 19-01-18 to 18:00 19-01-18
Wind:14 Knots from 220°
Visibility:6.21 statute miles
25000FEW A few